createdAt,value
2018-08-12T00:01:29.772Z,16.64
2018-08-12T00:03:59.552Z,16.59
2018-08-12T00:06:28.667Z,16.64
2018-08-12T00:08:57.791Z,16.39
2018-08-12T00:11:26.898Z,16.40
2018-08-12T00:13:56.065Z,16.31
2018-08-12T00:16:25.169Z,16.27
2018-08-12T00:18:54.289Z,16.29
2018-08-12T00:21:23.404Z,16.24
2018-08-12T00:23:52.513Z,16.19
2018-08-12T00:26:21.613Z,16.18
2018-08-12T00:28:50.696Z,16.13
2018-08-12T00:31:19.950Z,16.09
2018-08-12T00:33:49.212Z,16.07
2018-08-12T00:36:18.286Z,16.12
2018-08-12T00:38:48.292Z,16.10
2018-08-12T00:41:17.384Z,16.03
2018-08-12T00:43:46.559Z,16.00
2018-08-12T00:46:15.685Z,15.97
2018-08-12T00:48:44.756Z,16.02
2018-08-12T00:51:13.855Z,15.97
2018-08-12T00:53:43.122Z,15.93
2018-08-12T00:56:12.188Z,15.88
2018-08-12T00:58:41.322Z,15.72
2018-08-12T01:01:10.423Z,15.73
2018-08-12T01:03:39.606Z,15.86
2018-08-12T01:06:08.669Z,15.77
2018-08-12T01:08:37.839Z,15.69
2018-08-12T01:11:07.263Z,15.78
2018-08-12T01:13:36.407Z,15.75
2018-08-12T01:16:05.919Z,15.80
2018-08-12T01:18:35.019Z,15.87
2018-08-12T01:21:04.234Z,15.74
2018-08-12T01:23:33.428Z,15.72
2018-08-12T01:26:02.599Z,15.68
2018-08-12T01:28:31.868Z,15.47
2018-08-12T01:31:01.043Z,15.55
2018-08-12T01:33:30.151Z,15.67
2018-08-12T01:35:59.303Z,15.49
2018-08-12T01:38:28.417Z,15.39
2018-08-12T01:40:57.560Z,15.43
2018-08-12T01:43:26.683Z,15.40
2018-08-12T01:45:55.840Z,15.47
2018-08-12T01:48:24.898Z,15.50
2018-08-12T01:50:54.068Z,15.48
2018-08-12T01:53:23.164Z,15.44
2018-08-12T01:55:52.260Z,15.46
2018-08-12T01:58:21.336Z,15.38
2018-08-12T02:00:50.491Z,15.28
2018-08-12T02:03:19.656Z,15.22
2018-08-12T02:05:48.820Z,15.18
2018-08-12T02:08:17.928Z,15.18
2018-08-12T02:10:47.041Z,15.11
2018-08-12T02:13:16.134Z,15.00
2018-08-12T02:15:45.280Z,15.07
2018-08-12T02:18:14.344Z,15.09
2018-08-12T02:20:43.476Z,15.09
2018-08-12T02:23:12.608Z,15.06
2018-08-12T02:25:41.664Z,15.13
2018-08-12T02:28:10.744Z,15.01
2018-08-12T02:30:39.856Z,14.99
2018-08-12T02:33:08.921Z,14.92
2018-08-12T02:35:38.020Z,14.88
2018-08-12T02:38:07.127Z,14.88
2018-08-12T02:40:36.208Z,14.79
2018-08-12T02:43:05.316Z,14.74
2018-08-12T02:45:34.461Z,14.86
2018-08-12T02:48:03.688Z,14.77
2018-08-12T02:50:32.763Z,14.78
2018-08-12T02:53:01.866Z,14.79
2018-08-12T02:55:31.045Z,14.67
2018-08-12T02:58:00.124Z,14.69
2018-08-12T03:00:29.322Z,14.78
2018-08-12T03:02:58.409Z,14.72
2018-08-12T03:05:27.519Z,14.84
2018-08-12T03:07:56.619Z,14.81
2018-08-12T03:10:25.827Z,14.76
2018-08-12T03:12:54.884Z,14.83
2018-08-12T03:15:24.005Z,14.74
2018-08-12T03:17:53.105Z,14.67
2018-08-12T03:20:22.358Z,14.71
2018-08-12T03:22:51.457Z,14.66
2018-08-12T03:25:20.617Z,14.73
2018-08-12T03:27:49.720Z,14.77
2018-08-12T03:30:18.887Z,14.83
2018-08-12T03:32:47.972Z,14.87
2018-08-12T03:35:17.197Z,14.75
2018-08-12T03:37:46.294Z,14.80
2018-08-12T03:40:15.377Z,14.69
2018-08-12T03:42:44.472Z,14.59
2018-08-12T03:45:13.668Z,14.62
2018-08-12T03:47:42.796Z,14.49
2018-08-12T03:50:12.020Z,14.50
2018-08-12T03:52:41.107Z,14.54
2018-08-12T03:55:10.261Z,14.39
2018-08-12T03:57:39.359Z,14.42
2018-08-12T04:00:13.013Z,14.54
2018-08-12T04:02:42.316Z,14.52
2018-08-12T04:05:11.463Z,14.60
2018-08-12T04:07:40.636Z,14.49
2018-08-12T04:10:10.216Z,14.37
2018-08-12T04:12:39.618Z,14.44
2018-08-12T04:15:09.889Z,14.42
2018-08-12T04:17:39.078Z,14.39
2018-08-12T04:20:09.194Z,14.36
2018-08-12T04:22:38.684Z,14.36
2018-08-12T04:25:07.873Z,14.39
2018-08-12T04:27:36.952Z,14.30
2018-08-12T04:30:07.624Z,14.28
2018-08-12T04:32:36.728Z,14.28
2018-08-12T04:35:06.484Z,14.33
2018-08-12T04:37:35.930Z,14.22
2018-08-12T04:40:06.155Z,14.20
2018-08-12T04:42:35.264Z,14.29
2018-08-12T04:45:04.794Z,14.29
2018-08-12T04:47:33.888Z,14.39
2018-08-12T04:50:02.978Z,14.47
2018-08-12T04:52:32.120Z,14.53
2018-08-12T04:55:01.238Z,14.54
2018-08-12T04:57:30.326Z,14.51
2018-08-12T04:59:59.508Z,14.53
2018-08-12T05:02:28.667Z,14.57
2018-08-12T05:04:57.783Z,14.64
2018-08-12T05:07:26.891Z,14.62
2018-08-12T05:09:56.026Z,14.71
2018-08-12T05:12:25.187Z,14.72
2018-08-12T05:14:54.335Z,14.72
2018-08-12T05:17:23.431Z,14.79
2018-08-12T05:19:52.531Z,14.83
2018-08-12T05:22:21.691Z,14.90
2018-08-12T05:24:50.853Z,14.90
2018-08-12T05:27:19.944Z,14.99
2018-08-12T05:29:49.032Z,15.04
2018-08-12T05:32:18.166Z,15.10
2018-08-12T05:34:47.273Z,15.14
2018-08-12T05:37:16.473Z,15.43
2018-08-12T05:39:45.592Z,15.59
2018-08-12T05:42:14.789Z,15.64
2018-08-12T05:44:43.908Z,15.69
2018-08-12T05:47:12.996Z,15.71
2018-08-12T05:49:42.064Z,15.85
2018-08-12T05:52:11.162Z,15.91
2018-08-12T05:54:40.352Z,16.04
2018-08-12T05:57:09.455Z,16.14
2018-08-12T05:59:38.551Z,16.20
2018-08-12T06:02:07.741Z,16.33
2018-08-12T06:04:36.816Z,16.45
2018-08-12T06:07:06.004Z,16.49
2018-08-12T06:09:35.095Z,16.53
2018-08-12T06:12:04.196Z,16.59
2018-08-12T06:14:33.367Z,16.65
2018-08-12T06:17:02.538Z,16.70
2018-08-12T06:19:31.599Z,16.68
2018-08-12T06:22:00.743Z,16.80
2018-08-12T06:24:29.847Z,16.84
2018-08-12T06:26:58.935Z,16.87
2018-08-12T06:29:28.032Z,16.92
2018-08-12T06:31:57.117Z,17.02
2018-08-12T06:34:26.316Z,17.09
2018-08-12T06:36:55.527Z,17.14
2018-08-12T06:39:24.671Z,17.13
2018-08-12T06:41:53.835Z,17.17
2018-08-12T06:44:22.943Z,17.26
2018-08-12T06:46:52.043Z,17.35
2018-08-12T06:49:21.153Z,17.42
2018-08-12T06:51:50.365Z,17.50
2018-08-12T06:54:19.458Z,17.53
2018-08-12T06:56:48.621Z,17.57
2018-08-12T06:59:17.724Z,17.61
2018-08-12T07:01:46.900Z,17.71
2018-08-12T07:04:15.989Z,17.82
2018-08-12T07:06:45.128Z,17.91
2018-08-12T07:09:14.232Z,17.90
2018-08-12T07:11:43.331Z,18.01
2018-08-12T07:14:12.440Z,18.06
2018-08-12T07:16:41.595Z,18.13
2018-08-12T07:19:10.666Z,18.16
2018-08-12T07:21:39.802Z,18.31
2018-08-12T07:24:08.968Z,18.38
2018-08-12T07:26:38.067Z,18.40
2018-08-12T07:29:07.204Z,18.43
2018-08-12T07:31:36.344Z,18.61
2018-08-12T07:34:05.464Z,18.77
2018-08-12T07:36:34.655Z,18.77
2018-08-12T07:39:04.370Z,18.83
2018-08-12T07:41:33.599Z,18.86
2018-08-12T07:44:02.703Z,18.91
2018-08-12T07:46:32.356Z,19.06
2018-08-12T07:49:01.458Z,19.19
2018-08-12T07:51:30.641Z,19.13
2018-08-12T07:53:59.863Z,19.20
2018-08-12T07:56:29.054Z,19.20
2018-08-12T07:58:58.213Z,19.30
2018-08-12T08:01:27.371Z,19.29
2018-08-12T08:03:56.632Z,19.45
2018-08-12T08:06:25.833Z,19.54
2018-08-12T08:08:54.895Z,19.67
2018-08-12T08:11:24.079Z,19.74
2018-08-12T08:13:53.320Z,19.90
2018-08-12T08:16:22.475Z,20.09
2018-08-12T08:18:51.634Z,20.09
2018-08-12T08:21:20.797Z,20.17
2018-08-12T08:23:49.943Z,20.07
2018-08-12T08:26:19.041Z,20.14
2018-08-12T08:28:48.124Z,20.36
2018-08-12T08:31:17.221Z,20.39
2018-08-12T08:33:46.304Z,20.62
2018-08-12T08:36:15.560Z,20.74
2018-08-12T08:38:44.616Z,20.69
2018-08-12T08:41:13.704Z,20.80
2018-08-12T08:43:42.964Z,20.86
2018-08-12T08:46:12.089Z,21.06
2018-08-12T08:48:41.332Z,21.10
2018-08-12T08:51:10.432Z,21.28
2018-08-12T08:53:39.539Z,21.26
2018-08-12T08:56:08.680Z,21.17
2018-08-12T08:58:37.872Z,21.41
2018-08-12T09:01:06.999Z,21.41
2018-08-12T09:03:36.104Z,21.51
2018-08-12T09:06:05.983Z,21.67
2018-08-12T09:08:35.440Z,21.70
2018-08-12T09:11:04.394Z,21.74
2018-08-12T09:13:33.512Z,21.81
2018-08-12T09:16:02.593Z,22.06
2018-08-12T09:18:31.817Z,22.23
2018-08-12T09:21:00.925Z,22.39
2018-08-12T09:23:30.041Z,22.40
2018-08-12T09:25:59.204Z,22.32
2018-08-12T09:28:28.292Z,22.18
2018-08-12T09:30:57.495Z,22.40
2018-08-12T09:33:26.606Z,22.59
2018-08-12T09:35:55.854Z,22.44
2018-08-12T09:38:24.953Z,22.32
2018-08-12T09:40:54.112Z,22.72
2018-08-12T09:43:23.813Z,22.92
2018-08-12T09:45:52.902Z,22.78
2018-08-12T09:48:22.037Z,22.67
2018-08-12T09:50:51.277Z,22.60
2018-08-12T09:53:20.369Z,22.87
2018-08-12T09:55:49.488Z,23.09
2018-08-12T09:58:18.685Z,23.26
2018-08-12T10:00:47.784Z,23.40
2018-08-12T10:03:16.900Z,23.65
2018-08-12T10:05:45.957Z,23.71
2018-08-12T10:08:15.104Z,23.56
2018-08-12T10:10:44.196Z,23.47
2018-08-12T10:13:13.292Z,23.56
2018-08-12T10:15:42.489Z,23.50
2018-08-12T10:18:11.635Z,23.07
2018-08-12T10:20:40.831Z,23.31
2018-08-12T10:23:10.058Z,23.56
2018-08-12T10:25:39.199Z,23.90
2018-08-12T10:28:08.302Z,24.00
2018-08-12T10:30:37.407Z,23.89
2018-08-12T10:33:06.942Z,23.64
2018-08-12T10:35:36.072Z,23.50
2018-08-12T10:38:05.385Z,23.63
2018-08-12T10:40:34.521Z,23.61
2018-08-12T10:43:03.715Z,23.62
2018-08-12T10:45:32.977Z,23.71
2018-08-12T10:48:02.102Z,23.86
2018-08-12T10:50:31.191Z,24.19
2018-08-12T10:53:00.285Z,24.26
2018-08-12T10:55:29.387Z,24.69
2018-08-12T10:57:58.507Z,24.66
2018-08-12T11:00:29.173Z,24.58
2018-08-12T11:02:58.283Z,24.71
2018-08-12T11:05:27.504Z,24.47
2018-08-12T11:07:58.685Z,24.61
2018-08-12T11:10:28.591Z,25.02
2018-08-12T11:12:57.678Z,25.39
2018-08-12T11:15:26.763Z,25.20
2018-08-12T11:17:55.907Z,25.26
2018-08-12T11:20:25.096Z,25.40
2018-08-12T11:22:54.123Z,25.43
2018-08-12T11:25:23.356Z,25.51
2018-08-12T11:27:52.551Z,25.08
2018-08-12T11:30:21.699Z,25.23
2018-08-12T11:32:50.853Z,25.56
2018-08-12T11:35:19.958Z,25.48
2018-08-12T11:37:49.065Z,25.51
2018-08-12T11:40:18.172Z,25.60
2018-08-12T11:42:47.272Z,25.68
2018-08-12T11:45:17.792Z,25.85
2018-08-12T11:47:47.905Z,25.98
2018-08-12T11:50:17.693Z,25.88
2018-08-12T11:52:47.214Z,26.20
2018-08-12T11:55:19.501Z,26.23
2018-08-12T11:57:48.715Z,26.25
2018-08-12T12:00:19.951Z,26.56
2018-08-12T12:02:50.288Z,27.02
2018-08-12T12:05:19.429Z,27.18
2018-08-12T12:07:48.620Z,27.38
2018-08-12T12:10:19.985Z,27.76
2018-08-12T12:12:50.192Z,27.90
2018-08-12T12:15:19.508Z,28.17
2018-08-12T12:17:48.991Z,28.43
2018-08-12T12:20:18.845Z,29.06
2018-08-12T12:22:48.453Z,29.67
2018-08-12T12:25:19.136Z,30.38
2018-08-12T12:27:48.316Z,31.03
2018-08-12T12:30:19.089Z,31.04
2018-08-12T12:32:49.405Z,31.72
2018-08-12T12:35:18.583Z,31.01
2018-08-12T12:37:47.799Z,32.35
2018-08-12T12:40:18.164Z,32.92
2018-08-12T12:42:47.957Z,32.21
2018-08-12T12:45:17.577Z,32.66
2018-08-12T12:47:46.694Z,32.56
2018-08-12T12:50:17.631Z,33.79
2018-08-12T12:52:47.712Z,34.42
2018-08-12T12:55:17.353Z,33.82
2018-08-12T12:57:46.835Z,33.71
2018-08-12T13:00:17.557Z,34.06
2018-08-12T13:02:46.827Z,34.31
2018-08-12T13:05:17.280Z,33.82
2018-08-12T13:07:47.513Z,34.26
2018-08-12T13:10:17.514Z,34.27
2018-08-12T13:12:46.751Z,34.47
2018-08-12T13:15:16.761Z,34.88
2018-08-12T13:17:45.919Z,35.10
2018-08-12T13:20:17.940Z,34.89
2018-08-12T13:22:47.955Z,35.33
2018-08-12T13:25:19.054Z,35.22
2018-08-12T13:27:48.276Z,35.40
2018-08-12T13:30:18.396Z,34.85
2018-08-12T13:32:48.317Z,35.06
2018-08-12T13:35:17.472Z,35.30
2018-08-12T13:37:46.727Z,35.30
2018-08-12T13:40:16.812Z,35.17
2018-08-12T13:42:46.400Z,35.42
2018-08-12T13:45:15.795Z,35.76
2018-08-12T13:47:45.540Z,35.62
2018-08-12T13:50:18.737Z,36.35
2018-08-12T13:52:48.606Z,35.90
2018-08-12T13:55:18.342Z,36.37
2018-08-12T13:57:49.155Z,36.71
2018-08-12T14:00:19.925Z,36.63
2018-08-12T14:02:49.145Z,36.24
2018-08-12T14:05:18.961Z,36.39
2018-08-12T14:07:49.655Z,36.43
2018-08-12T14:10:18.719Z,36.52
2018-08-12T14:12:47.850Z,36.57
2018-08-12T14:15:18.203Z,36.28
2018-08-12T14:17:48.439Z,36.93
2018-08-12T14:20:18.729Z,36.47
2018-08-12T14:22:47.951Z,35.96
2018-08-12T14:25:17.015Z,36.12
2018-08-12T14:27:46.326Z,35.99
2018-08-12T14:30:17.528Z,36.61
2018-08-12T14:32:47.464Z,35.89
2018-08-12T14:35:16.639Z,36.41
2018-08-12T14:37:45.823Z,36.41
2018-08-12T14:40:15.416Z,36.47
2018-08-12T14:42:44.924Z,36.76
2018-08-12T14:45:15.096Z,37.05
2018-08-12T14:47:44.483Z,37.01
2018-08-12T14:50:16.175Z,36.91
2018-08-12T14:52:45.331Z,37.43
2018-08-12T14:55:14.996Z,37.51
2018-08-12T14:57:44.392Z,38.39
2018-08-12T15:00:17.687Z,38.36
2018-08-12T15:02:48.212Z,38.02
2018-08-12T15:05:17.873Z,37.49
2018-08-12T15:07:47.024Z,37.55
2018-08-12T15:10:16.251Z,37.68
2018-08-12T15:12:45.616Z,37.44
2018-08-12T15:15:15.823Z,36.88
2018-08-12T15:17:45.834Z,36.83
2018-08-12T15:20:15.628Z,36.76
2018-08-12T15:22:44.936Z,36.87
2018-08-12T15:25:19.082Z,37.43
2018-08-12T15:27:48.267Z,37.22
2018-08-12T15:30:18.346Z,37.31
2018-08-12T15:32:47.564Z,37.41
2018-08-12T15:35:16.816Z,37.16
2018-08-12T15:37:46.008Z,36.70
2018-08-12T15:40:15.660Z,36.55
2018-08-12T15:42:45.080Z,36.51
2018-08-12T15:45:16.280Z,36.67
2018-08-12T15:47:46.119Z,36.60
2018-08-12T15:50:15.268Z,36.67
2018-08-12T15:52:45.460Z,36.50
2018-08-12T15:55:15.025Z,36.58
2018-08-12T15:57:44.109Z,35.83
2018-08-12T16:00:15.316Z,36.03
2018-08-12T16:02:45.081Z,35.75
2018-08-12T16:05:14.236Z,35.97
2018-08-12T16:07:44.328Z,36.14
2018-08-12T16:10:16.101Z,36.26
2018-08-12T16:12:46.012Z,35.29
2018-08-12T16:15:15.151Z,35.61
2018-08-12T16:17:44.352Z,35.12
2018-08-12T16:20:13.675Z,34.89
2018-08-12T16:22:43.245Z,35.05
2018-08-12T16:25:14.858Z,35.02
2018-08-12T16:27:44.335Z,34.90
2018-08-12T16:30:15.801Z,35.02
2018-08-12T16:32:44.955Z,35.10
2018-08-12T16:35:15.378Z,34.23
2018-08-12T16:37:45.345Z,34.70
2018-08-12T16:40:16.056Z,34.81
2018-08-12T16:42:45.503Z,34.39
2018-08-12T16:45:15.484Z,34.69
2018-08-12T16:47:45.271Z,34.38
2018-08-12T16:50:14.351Z,34.09
2018-08-12T16:52:43.808Z,33.98
2018-08-12T16:55:14.788Z,34.40
2018-08-12T16:57:44.889Z,33.96
2018-08-12T17:00:15.566Z,33.79
2018-08-12T17:02:45.435Z,32.69
2018-08-12T17:05:15.992Z,32.60
2018-08-12T17:07:45.258Z,32.27
2018-08-12T17:10:15.760Z,32.07
2018-08-12T17:12:44.925Z,32.37
2018-08-12T17:15:16.017Z,32.01
2018-08-12T17:17:45.444Z,31.66
2018-08-12T17:20:15.879Z,30.98
2018-08-12T17:22:45.424Z,30.83
2018-08-12T17:25:14.512Z,30.16
2018-08-12T17:27:43.660Z,29.93
2018-08-12T17:30:14.327Z,29.41
2018-08-12T17:32:43.421Z,29.14
2018-08-12T17:35:12.581Z,29.08
2018-08-12T17:37:42.752Z,28.92
2018-08-12T17:40:13.091Z,28.77
2018-08-12T17:42:42.271Z,28.43
2018-08-12T17:45:12.603Z,28.20
2018-08-12T17:47:42.205Z,28.06
2018-08-12T17:50:12.847Z,27.85
2018-08-12T17:52:42.204Z,27.59
2018-08-12T17:55:11.295Z,27.64
2018-08-12T17:57:40.400Z,27.49
2018-08-12T18:00:12.726Z,27.36
2018-08-12T18:02:41.943Z,27.25
2018-08-12T18:05:11.301Z,27.27
2018-08-12T18:07:41.143Z,27.20
2018-08-12T18:10:10.359Z,27.16
2018-08-12T18:12:39.465Z,27.18
2018-08-12T18:15:10.152Z,27.08
2018-08-12T18:17:39.846Z,27.09
2018-08-12T18:20:09.382Z,26.98
2018-08-12T18:22:38.467Z,26.90
2018-08-12T18:25:09.780Z,26.82
2018-08-12T18:27:38.859Z,26.74
2018-08-12T18:30:10.320Z,26.59
2018-08-12T18:32:39.688Z,26.43
2018-08-12T18:35:09.464Z,26.31
2018-08-12T18:37:38.798Z,26.19
2018-08-12T18:40:09.590Z,26.14
2018-08-12T18:42:38.938Z,25.99
2018-08-12T18:45:08.086Z,25.86
2018-08-12T18:47:37.239Z,25.76
2018-08-12T18:50:07.836Z,25.71
2018-08-12T18:52:36.987Z,25.55
2018-08-12T18:55:07.560Z,25.43
2018-08-12T18:57:36.851Z,25.33
2018-08-12T19:00:07.750Z,25.30
2018-08-12T19:02:36.821Z,25.22
2018-08-12T19:05:06.736Z,25.03
2018-08-12T19:07:35.828Z,25.04
2018-08-12T19:10:05.796Z,25.03
2018-08-12T19:12:34.896Z,25.00
2018-08-12T19:15:05.156Z,24.86
2018-08-12T19:17:35.110Z,24.66
2018-08-12T19:20:05.061Z,24.66
2018-08-12T19:22:34.164Z,24.48
2018-08-12T19:25:03.496Z,24.47
2018-08-12T19:27:32.592Z,24.35
2018-08-12T19:30:01.712Z,24.23
2018-08-12T19:32:30.804Z,24.09
2018-08-12T19:34:59.880Z,24.13
2018-08-12T19:37:29.124Z,24.24
2018-08-12T19:39:58.280Z,23.96
2018-08-12T19:42:27.351Z,23.97
2018-08-12T19:44:56.584Z,23.88
2018-08-12T19:47:25.856Z,23.83
2018-08-12T19:49:54.923Z,23.79
2018-08-12T19:52:24.089Z,23.65
2018-08-12T19:54:53.252Z,23.64
2018-08-12T19:57:22.352Z,23.55
2018-08-12T19:59:51.441Z,23.56
2018-08-12T20:02:20.545Z,23.51
2018-08-12T20:04:49.654Z,23.47
2018-08-12T20:07:18.823Z,23.46
2018-08-12T20:09:48.002Z,23.33
2018-08-12T20:12:17.230Z,23.33
2018-08-12T20:14:46.259Z,23.18
2018-08-12T20:17:15.352Z,23.26
2018-08-12T20:19:44.444Z,23.35
2018-08-12T20:22:15.204Z,23.35
2018-08-12T20:24:45.009Z,23.30
2018-08-12T20:27:14.301Z,23.26
2018-08-12T20:29:43.908Z,23.14
2018-08-12T20:32:12.989Z,23.01
2018-08-12T20:34:42.069Z,23.04
2018-08-12T20:37:11.138Z,22.97
2018-08-12T20:39:40.215Z,23.00
2018-08-12T20:42:09.321Z,22.87
2018-08-12T20:44:38.402Z,22.90
2018-08-12T20:47:07.624Z,22.79
2018-08-12T20:49:36.718Z,22.84
2018-08-12T20:52:05.913Z,22.80
2018-08-12T20:54:34.999Z,22.74
2018-08-12T20:57:04.071Z,22.58
2018-08-12T20:59:33.222Z,22.52
2018-08-12T21:02:02.368Z,22.48
2018-08-12T21:04:31.475Z,22.50
2018-08-12T21:07:00.582Z,22.42
2018-08-12T21:09:29.687Z,22.38
2018-08-12T21:11:58.931Z,22.32
2018-08-12T21:14:27.926Z,22.26
2018-08-12T21:16:57.108Z,22.28
2018-08-12T21:19:26.440Z,22.40
2018-08-12T21:21:55.555Z,22.31
2018-08-12T21:24:24.844Z,22.44
2018-08-12T21:26:53.977Z,22.34
2018-08-12T21:29:23.032Z,22.25
2018-08-12T21:31:52.121Z,22.27
2018-08-12T21:34:21.183Z,22.22
2018-08-12T21:36:50.293Z,22.29
2018-08-12T21:39:19.395Z,22.35
2018-08-12T21:41:48.463Z,22.39
2018-08-12T21:44:17.658Z,22.45
2018-08-12T21:46:46.756Z,22.39
2018-08-12T21:49:15.935Z,22.33
2018-08-12T21:51:45.027Z,22.23
2018-08-12T21:54:14.191Z,22.29
2018-08-12T21:56:43.308Z,22.32
2018-08-12T21:59:12.390Z,22.27
2018-08-12T22:01:41.559Z,22.31
2018-08-12T22:06:45.926Z,22.45
2018-08-12T22:09:15.004Z,22.39
2018-08-12T22:11:44.083Z,22.39
2018-08-12T22:14:13.217Z,22.28
2018-08-12T22:16:42.299Z,22.26
2018-08-12T22:19:11.426Z,22.30
2018-08-12T22:21:40.579Z,22.23
2018-08-12T22:24:09.688Z,22.24
2018-08-12T22:26:38.845Z,22.27
2018-08-12T22:29:07.976Z,22.36
2018-08-12T22:31:37.120Z,22.39
2018-08-12T22:34:06.218Z,22.36
2018-08-12T22:36:35.344Z,22.27
2018-08-12T22:39:06.137Z,22.27
2018-08-12T22:41:35.292Z,22.23
2018-08-12T22:44:04.624Z,22.26
2018-08-12T22:46:33.708Z,22.21
2018-08-12T22:49:02.810Z,22.16
2018-08-12T22:51:31.960Z,22.19
2018-08-12T22:54:01.077Z,22.13
2018-08-12T22:56:30.292Z,22.12
2018-08-12T22:58:59.389Z,22.27
2018-08-12T23:01:28.556Z,22.40
2018-08-12T23:03:57.648Z,22.37
2018-08-12T23:06:26.876Z,22.34
2018-08-12T23:08:55.968Z,22.19
2018-08-12T23:11:25.080Z,22.14
2018-08-12T23:13:54.184Z,22.07
2018-08-12T23:16:34.712Z,22.01
2018-08-12T23:19:03.812Z,21.94
2018-08-12T23:21:32.927Z,21.92
2018-08-12T23:24:02.075Z,21.96
2018-08-12T23:26:31.231Z,21.96
2018-08-12T23:29:00.336Z,21.81
2018-08-12T23:31:29.459Z,21.76
2018-08-12T23:33:58.609Z,21.77
2018-08-12T23:36:27.704Z,21.78
2018-08-12T23:38:56.839Z,21.71
2018-08-12T23:41:25.964Z,21.70
2018-08-12T23:43:55.069Z,21.67
2018-08-12T23:46:24.159Z,21.60
2018-08-12T23:48:53.295Z,21.56
2018-08-12T23:51:22.364Z,21.41
2018-08-12T23:53:51.601Z,21.38
2018-08-12T23:56:20.700Z,21.39
2018-08-12T23:58:49.806Z,21.37
